Terminal Aerodrome Forecast
Issued by NWS

Home | Current Version | Previous Version | Text Only | Print | Product List | Glossary On
Versions: 1 2 3 4 5 6 7 8 9 10 11 12 13 14 15 16 17 18 19 20 21 22
641
FTPA31 PHFO 031123
TAFHTO
TAF
PHTO 031123Z 0312/0412 24005KT P6SM VCSH SCT025 BKN045
      TEMPO 0312/0316 3SM SHRA BR SCT015 BKN025
     FM032100 14008KT P6SM VCSH SCT025 BKN045
     FM040500 24005KT P6SM VCSH SCT025 BKN045=

USA.gov is the U.S. government's official web portal to all federal, state and local government web resources and services.